Time;durP1;ratioP1;P1;durP2;ratioP2;P2;SDS_P1;SDS_P2;PMS_P1;PMS_P2;Temp;Humidity;BMP_temperature;BMP_pressure;BME280_temperature;BME280_humidity;BME280_pressure;Samples;Min_cycle;Max_cycle;Signal;HPM_P1;HPM_P2
2023/11/09 00:01:37;;;;;;;1.80;1.60;;;;;;;6.49;100.00;100477.48;105995;1253;66998;-54
2023/11/09 00:04:05;;;;;;;3.80;1.70;;;;;;;6.50;100.00;100482.81;105398;1258;72743;-55
2023/11/09 00:06:33;;;;;;;5.70;2.10;;;;;;;6.51;100.00;100483.16;106930;1257;60563;-55
2023/11/09 00:09:01;;;;;;;4.30;2.40;;;;;;;6.49;100.00;100483.02;105330;1259;61156;-56
2023/11/09 00:11:28;;;;;;;2.80;2.60;;;;;;;6.48;100.00;100487.13;105352;1259;73817;-55
2023/11/09 00:13:56;;;;;;;2.40;2.20;;;;;;;6.48;100.00;100483.02;105429;1259;67085;-55
2023/11/09 00:16:23;;;;;;;3.00;2.70;;;;;;;6.47;100.00;100485.55;105383;1256;71191;-55
2023/11/09 00:18:52;;;;;;;2.60;2.40;;;;;;;6.45;100.00;100486.84;105405;1259;62525;-55
2023/11/09 00:21:20;;;;;;;3.90;3.60;;;;;;;6.45;100.00;100484.89;105446;1257;60357;-57
2023/11/09 00:23:48;;;;;;;2.80;2.60;;;;;;;6.45;100.00;100479.02;105409;1253;73073;-56
2023/11/09 00:26:15;;;;;;;3.60;3.00;;;;;;;6.45;100.00;100478.12;105245;1257;65752;-56
2023/11/09 00:28:50;;;;;;;3.10;2.80;;;;;;;6.46;100.00;100485.77;106595;1253;72714;-56
2023/11/09 00:31:22;;;;;;;2.90;2.70;;;;;;;6.45;100.00;100490.41;105329;1258;60560;-55
2023/11/09 00:33:50;;;;;;;5.70;3.00;;;;;;;6.39;100.00;100489.09;108564;1255;60699;-54
2023/11/09 00:36:18;;;;;;;3.30;3.00;;;;;;;6.35;100.00;100489.19;108854;1258;72621;-57
2023/11/09 00:38:49;;;;;;;3.50;3.20;;;;;;;6.32;100.00;100489.41;108267;1258;66501;-56
2023/11/09 00:41:17;;;;;;;3.50;3.20;;;;;;;6.30;100.00;100485.52;105905;1259;71498;-54
2023/11/09 00:43:44;;;;;;;3.40;3.10;;;;;;;6.30;100.00;100486.25;105211;1254;60591;-53
2023/11/09 00:46:11;;;;;;;4.10;3.20;;;;;;;6.30;100.00;100490.51;105270;1253;60831;-55
2023/11/09 00:48:39;;;;;;;3.50;3.20;;;;;;;6.30;100.00;100498.89;105319;1260;73854;-54
2023/11/09 00:51:06;;;;;;;5.20;3.20;;;;;;;6.30;100.00;100492.46;105312;1259;65720;-53
2023/11/09 00:53:35;;;;;;;5.30;3.50;;;;;;;6.29;100.00;100490.90;105290;1259;73238;-55
2023/11/09 00:56:05;;;;;;;4.10;3.60;;;;;;;6.27;100.00;100497.19;107645;1253;60524;-55
2023/11/09 00:58:33;;;;;;;4.00;3.70;;;;;;;6.26;100.00;100490.61;105912;1253;60466;-55
2023/11/09 01:01:02;;;;;;;5.70;5.20;;;;;;;6.25;100.00;100492.04;105442;1253;72937;-54
2023/11/09 01:03:29;;;;;;;6.30;4.60;;;;;;;6.28;100.00;100495.92;105845;1257;65565;-53
2023/11/09 01:06:00;;;;;;;4.50;4.10;;;;;;;6.30;100.00;100500.69;105367;1258;72475;-54
2023/11/09 01:08:28;;;;;;;4.50;3.60;;;;;;;6.32;100.00;100500.30;105777;1259;61270;-54
2023/11/09 01:10:56;;;;;;;6.40;5.00;;;;;;;6.32;100.00;100496.71;105292;1258;61645;-54
2023/11/09 01:13:23;;;;;;;5.70;4.40;;;;;;;6.33;100.00;100496.17;105427;1256;73929;-56
2023/11/09 01:15:50;;;;;;;5.50;4.90;;;;;;;6.35;100.00;100500.41;105379;1255;67196;-51
2023/11/09 01:18:18;;;;;;;8.10;4.30;;;;;;;6.37;100.00;100496.82;105353;1253;71417;-54
2023/11/09 01:20:46;;;;;;;4.70;4.40;;;;;;;6.39;100.00;100499.25;105235;1253;60519;-55
2023/11/09 01:23:14;;;;;;;9.70;5.00;;;;;;;6.41;100.00;100501.01;105471;1255;60345;-54
2023/11/09 01:25:43;;;;;;;6.20;5.20;;;;;;;6.42;100.00;100503.66;105468;1255;73939;-56
2023/11/09 01:28:11;;;;;;;6.30;5.50;;;;;;;6.44;100.00;100507.38;105284;1259;67641;-54
2023/11/09 01:30:38;;;;;;;6.90;5.10;;;;;;;6.47;100.00;100511.23;108859;1254;72424;-55
2023/11/09 01:33:06;;;;;;;6.60;5.20;;;;;;;6.48;100.00;100512.98;109031;1253;61836;-56
2023/11/09 01:38:33;;;;;;;9.30;5.70;;;;;;;6.51;100.00;100598.16;102165;1305;600772;-52
2023/11/09 01:41:06;;;;;;;8.70;6.00;;;;;;;6.54;100.00;100640.55;104750;1266;61797;-55
2023/11/09 01:43:34;;;;;;;7.50;6.20;;;;;;;6.58;100.00;100633.52;104798;1263;59660;-54
2023/11/09 01:46:02;;;;;;;8.00;5.40;;;;;;;6.62;100.00;100625.61;104751;1264;72935;-52
2023/11/09 01:48:30;;;;;;;6.90;5.90;;;;;;;6.65;100.00;100618.05;104644;1262;65690;-52
2023/11/09 01:51:00;;;;;;;6.30;5.70;;;;;;;6.68;100.00;100608.91;103813;1262;3365090;-53
2023/11/09 01:53:28;;;;;;;7.40;5.10;;;;;;;6.69;100.00;100607.10;104812;1266;59390;-54
2023/11/09 01:55:55;;;;;;;6.30;5.80;;;;;;;6.71;100.00;100604.55;104543;1262;59359;-54
2023/11/09 01:58:23;;;;;;;5.90;5.40;;;;;;;6.73;100.00;100602.38;104628;1262;60122;-52
2023/11/09 02:00:51;;;;;;;8.90;6.50;;;;;;;6.75;100.00;100600.39;104750;1267;73196;-50
2023/11/09 02:03:18;;;;;;;7.10;5.00;;;;;;;6.76;100.00;100601.25;104741;1263;66251;-55
2023/11/09 02:05:46;;;;;;;5.40;4.50;;;;;;;6.79;100.00;100602.64;104808;1267;72744;-54
2023/11/09 02:08:14;;;;;;;8.00;5.40;;;;;;;6.80;100.00;100597.78;105172;1263;60689;-53
2023/11/09 02:10:42;;;;;;;5.70;5.30;;;;;;;6.83;100.00;100598.97;104607;1266;60878;-53
2023/11/09 02:13:09;;;;;;;8.20;5.70;;;;;;;6.86;100.00;100603.05;104775;1263;73700;-54
2023/11/09 02:15:37;;;;;;;7.90;4.40;;;;;;;6.88;100.00;100606.39;104695;1263;65756;-53
2023/11/09 02:18:04;;;;;;;7.20;6.40;;;;;;;6.90;100.00;100603.48;104730;1262;71471;-54
2023/11/09 02:20:32;;;;;;;6.10;5.50;;;;;;;6.91;100.00;100599.71;104892;1263;61734;-53
2023/11/09 02:23:01;;;;;;;8.10;5.20;;;;;;;6.93;100.00;100601.82;105093;1267;59653;-52
2023/11/09 02:25:29;;;;;;;6.70;5.70;;;;;;;6.96;100.00;100608.39;104670;1263;74000;-54
2023/11/09 02:27:56;;;;;;;7.00;6.30;;;;;;;6.98;100.00;100611.36;104769;1263;66980;-55
2023/11/09 02:30:24;;;;;;;10.60;5.60;;;;;;;7.01;100.00;100611.11;104718;1264;71616;-55
2023/11/09 02:32:52;;;;;;;7.50;5.60;;;;;;;7.03;100.00;100615.35;105665;1264;60487;-54
2023/11/09 02:35:19;;;;;;;8.40;5.70;;;;;;;7.06;100.00;100626.01;104574;1265;59570;-54
2023/11/09 02:37:47;;;;;;;8.20;6.10;;;;;;;7.08;100.00;100626.48;105267;1262;73731;-53
2023/11/09 02:40:15;;;;;;;6.90;5.80;;;;;;;7.09;100.00;100630.20;104691;1266;66775;-55
2023/11/09 02:42:45;;;;;;;8.10;5.90;;;;;;;7.11;100.00;100637.69;105205;1263;71169;-53
2023/11/09 02:45:13;;;;;;;7.60;6.20;;;;;;;7.13;100.00;100638.02;104697;1264;61767;-54
2023/11/09 02:47:40;;;;;;;8.80;7.40;;;;;;;7.14;100.00;100639.23;104788;1264;60648;-55
2023/11/09 02:50:09;;;;;;;9.50;7.00;;;;;;;7.16;100.00;100643.99;107055;1263;73406;-53
2023/11/09 02:52:37;;;;;;;8.10;7.40;;;;;;;7.18;100.00;100648.95;104777;1263;66703;-50
2023/11/09 02:55:05;;;;;;;8.90;8.00;;;;;;;7.19;100.00;100650.02;104798;1263;73234;-51
2023/11/09 02:57:34;;;;;;;9.20;7.50;;;;;;;7.21;100.00;100657.48;108334;1262;60406;-52
2023/11/09 03:00:05;;;;;;;8.50;7.70;;;;;;;7.22;100.00;100659.25;105010;1267;60023;-55
2023/11/09 03:02:34;;;;;;;12.40;7.20;;;;;;;7.24;100.00;100671.68;104619;1268;72694;-55
2023/11/09 03:05:02;;;;;;;7.80;7.00;;;;;;;7.25;100.00;100672.55;106036;1264;66843;-51
2023/11/09 03:07:29;;;;;;;8.80;7.70;;;;;;;7.28;100.00;100676.79;104916;1265;72244;-53
2023/11/09 03:09:57;;;;;;;9.00;7.30;;;;;;;7.30;100.00;100678.53;108105;1262;60510;-55
2023/11/09 03:12:26;;;;;;;10.30;7.90;;;;;;;7.32;100.00;100685.45;104694;1263;59612;-54
2023/11/09 03:14:54;;;;;;;11.30;8.10;;;;;;;7.33;100.00;100686.48;104852;1264;72987;-53
2023/11/09 03:17:22;;;;;;;11.10;8.90;;;;;;;7.33;100.00;100683.81;106889;1264;67608;-52
2023/11/09 03:19:49;;;;;;;10.50;7.70;;;;;;;7.32;100.00;100684.39;104716;1265;71478;-49
2023/11/09 03:22:17;;;;;;;16.10;7.90;;;;;;;7.30;100.00;100682.81;104636;1264;61859;-53
2023/11/09 03:24:44;;;;;;;9.10;8.00;;;;;;;7.30;100.00;100683.18;104653;1264;60425;-52
2023/11/09 03:27:12;;;;;;;10.70;8.30;;;;;;;7.31;100.00;100688.53;104767;1267;73108;-51
2023/11/09 03:29:39;;;;;;;10.20;7.50;;;;;;;7.31;100.00;100692.46;104640;1267;67051;-51
2023/11/09 03:32:09;;;;;;;10.00;7.90;;;;;;;7.32;100.00;100695.80;104678;1264;71918;-54
2023/11/09 03:34:37;;;;;;;9.30;7.30;;;;;;;7.33;100.00;100703.10;104513;1268;62912;-51
2023/11/09 03:37:06;;;;;;;7.90;6.70;;;;;;;7.34;100.00;100700.23;104870;1267;59599;-51
2023/11/09 03:39:35;;;;;;;8.60;7.10;;;;;;;7.35;100.00;100702.36;104615;1267;72292;-48
2023/11/09 03:42:03;;;;;;;8.80;7.20;;;;;;;7.36;100.00;100706.44;104697;1262;66096;-52
2023/11/09 03:44:40;;;;;;;8.20;7.10;;;;;;;7.37;100.00;100708.39;104636;1267;72179;-53
2023/11/09 03:47:08;;;;;;;8.20;7.40;;;;;;;7.37;100.00;100717.14;104774;1261;61957;-52
2023/11/09 03:49:40;;;;;;;18.60;8.70;;;;;;;7.36;100.00;100718.59;104757;1267;60021;-51
2023/11/09 03:52:08;;;;;;;8.60;7.70;;;;;;;7.36;100.00;100724.84;106958;1264;72017;-55
2023/11/09 03:54:36;;;;;;;7.70;6.90;;;;;;;7.36;100.00;100726.09;104793;1263;66301;-51
2023/11/09 03:57:03;;;;;;;8.30;7.50;;;;;;;7.34;100.00;100728.43;104683;1264;72429;-54
2023/11/09 03:59:31;;;;;;;11.50;7.40;;;;;;;7.34;100.00;100727.90;104626;1262;61740;-53
2023/11/09 04:01:58;;;;;;;7.40;6.40;;;;;;;7.35;100.00;100734.14;104853;1267;59636;-52
2023/11/09 04:04:26;;;;;;;9.00;7.30;;;;;;;7.34;100.00;100732.55;104612;1267;72823;-52
2023/11/09 04:06:54;;;;;;;7.70;7.00;;;;;;;7.34;100.00;100734.34;106066;1266;65532;-53
2023/11/09 04:09:22;;;;;;;8.60;7.10;;;;;;;7.33;100.00;100745.94;104679;1262;71492;-51
2023/11/09 04:11:49;;;;;;;8.60;7.20;;;;;;;7.32;100.00;100746.15;104820;1263;62132;-49
2023/11/09 04:14:16;;;;;;;8.40;6.40;;;;;;;7.33;100.00;100747.91;104793;1262;60288;-53
2023/11/09 04:16:44;;;;;;;10.20;6.90;;;;;;;7.34;100.00;100750.59;104708;1262;73266;-52
2023/11/09 04:19:11;;;;;;;7.40;6.40;;;;;;;7.34;100.00;100748.43;104680;1263;65192;-52
2023/11/09 04:21:39;;;;;;;8.80;6.00;;;;;;;7.34;100.00;100750.23;108251;1262;72732;-50
2023/11/09 04:24:06;;;;;;;7.60;6.80;;;;;;;7.33;100.00;100754.52;108448;1262;60493;-51
2023/11/09 04:26:34;;;;;;;6.70;6.00;;;;;;;7.33;100.00;100757.92;106329;1267;60019;-53
2023/11/09 04:29:02;;;;;;;8.10;6.30;;;;;;;7.33;100.00;100762.55;104783;1263;71840;-50
2023/11/09 04:31:31;;;;;;;10.60;6.40;;;;;;;7.35;100.00;100764.49;108371;1262;67069;-53
2023/11/09 04:34:02;;;;;;;8.00;5.90;;;;;;;7.34;100.00;100767.54;108385;1262;72781;-53
2023/11/09 04:36:31;;;;;;;9.40;6.60;;;;;;;7.33;100.00;100771.30;108288;1260;63528;-55
2023/11/09 04:38:59;;;;;;;10.90;7.80;;;;;;;7.35;100.00;100773.23;108565;1262;58933;-52
2023/11/09 04:41:26;;;;;;;8.80;6.60;;;;;;;7.37;100.00;100771.97;108253;1262;72035;-53
2023/11/09 04:43:55;;;;;;;8.10;7.30;;;;;;;7.38;100.00;100772.30;108269;1262;68096;-56
2023/11/09 04:46:23;;;;;;;7.90;6.40;;;;;;;7.40;100.00;100775.48;108394;1262;72765;-51
2023/11/09 04:48:55;;;;;;;9.60;7.40;;;;;;;7.41;100.00;100779.19;108381;1262;61766;-54
2023/11/09 04:51:30;;;;;;;9.80;7.90;;;;;;;7.41;100.00;100786.15;108325;1262;59047;-53
2023/11/09 04:54:06;;;;;;;8.60;7.10;;;;;;;7.42;100.00;100792.39;108295;1265;72288;-53
2023/11/09 04:56:52;;;;;;;14.00;7.10;;;;;;;7.44;100.00;100798.08;108399;1262;67119;-55
2023/11/09 05:07:30;;;;;;;6.90;6.30;;;;;;;7.36;100.00;100829.65;105685;1267;73636;-52
2023/11/09 05:09:58;;;;;;;7.20;6.00;;;;;;;7.35;100.00;100823.60;104883;1267;67261;-52
2023/11/09 05:12:26;;;;;;;7.90;6.30;;;;;;;7.34;100.00;100824.33;104825;1267;72212;-54
2023/11/09 05:14:53;;;;;;;8.70;6.50;;;;;;;7.34;100.00;100827.19;106062;1267;61019;-53
2023/11/09 05:17:21;;;;;;;9.00;7.10;;;;;;;7.33;100.00;100837.55;104415;1264;60107;-52
2023/11/09 05:19:50;;;;;;;7.20;6.50;;;;;;;7.33;100.00;100835.94;104849;1264;73378;-52
2023/11/09 05:22:18;;;;;;;8.80;7.20;;;;;;;7.33;100.00;100839.88;104661;1263;65699;-55
2023/11/09 05:24:46;;;;;;;9.70;8.10;;;;;;;7.32;100.00;100840.06;104359;1266;73521;-55
2023/11/09 05:27:14;;;;;;;11.60;6.80;;;;;;;7.31;100.00;100840.80;104521;1264;60472;-51
2023/11/09 05:29:44;;;;;;;9.20;6.60;;;;;;;7.31;100.00;100843.69;104909;1262;59813;-53
2023/11/09 05:32:14;;;;;;;9.50;7.90;;;;;;;7.31;100.00;100845.80;105938;1259;72371;-53
2023/11/09 05:34:41;;;;;;;8.60;7.60;;;;;;;7.33;100.00;100851.48;104887;1258;65549;-55
2023/11/09 05:37:09;;;;;;;7.90;7.10;;;;;;;7.34;100.00;100849.86;104833;1259;72140;-52
2023/11/09 05:39:36;;;;;;;9.30;6.80;;;;;;;7.34;100.00;100855.20;104853;1259;60779;-52
2023/11/09 05:42:04;;;;;;;8.80;6.60;;;;;;;7.36;100.00;100859.48;104926;1262;60481;-53
2023/11/09 05:44:32;;;;;;;7.00;6.20;;;;;;;7.39;100.00;100862.63;104525;1259;71383;-53
2023/11/09 05:46:59;;;;;;;7.90;5.80;;;;;;;7.41;100.00;100861.69;108574;1259;66979;-56
2023/11/09 05:49:26;;;;;;;6.30;5.70;;;;;;;7.44;100.00;100865.92;108503;1258;71590;-53
2023/11/09 05:51:54;;;;;;;6.90;6.20;;;;;;;7.46;100.00;100868.77;108323;1259;60911;-55
2023/11/09 05:54:22;;;;;;;5.90;4.80;;;;;;;7.49;100.00;100871.73;104968;1260;60532;-51
2023/11/09 05:56:49;;;;;;;6.50;5.90;;;;;;;7.53;100.00;100877.56;104822;1264;72637;-52
2023/11/09 05:59:17;;;;;;;7.10;5.90;;;;;;;7.55;100.00;100885.56;104804;1264;67044;-51
2023/11/09 06:01:45;;;;;;;5.50;4.50;;;;;;;7.59;100.00;100889.41;105025;1264;70470;-52
2023/11/09 06:04:13;;;;;;;7.30;5.10;;;;;;;7.63;100.00;100897.76;105055;1258;61032;-51
2023/11/09 06:06:43;;;;;;;8.80;5.30;;;;;;;7.65;100.00;100903.97;105247;1254;60522;-52
2023/11/09 06:09:11;;;;;;;7.60;5.50;;;;;;;7.68;100.00;100912.65;105344;1254;74041;-51
2023/11/09 06:11:38;;;;;;;7.80;4.30;;;;;;;7.71;100.00;100916.90;105273;1258;67221;-54
2023/11/09 06:14:07;;;;;;;6.10;4.10;;;;;;;7.72;100.00;100918.14;105471;1254;72782;-57
2023/11/09 06:16:34;;;;;;;8.00;4.20;;;;;;;7.74;100.00;100923.46;106904;1256;60551;-47
2023/11/09 06:19:02;;;;;;;5.20;4.20;;;;;;;7.75;100.00;100929.50;105420;1254;60539;-51
2023/11/09 06:21:30;;;;;;;5.80;5.00;;;;;;;7.76;100.00;100936.98;107880;1254;73977;-53
2023/11/09 06:23:57;;;;;;;9.20;5.00;;;;;;;7.76;100.00;100940.73;105324;1256;65826;-53
2023/11/09 06:26:25;;;;;;;7.80;5.50;;;;;;;7.77;100.00;100943.94;105298;1255;72654;-53
2023/11/09 06:28:52;;;;;;;8.30;5.10;;;;;;;7.78;100.00;100946.60;105235;1256;60515;-55
2023/11/09 06:31:22;;;;;;;5.10;4.70;;;;;;;7.80;100.00;100952.48;105204;1256;60478;-51
2023/11/09 06:33:51;;;;;;;7.30;5.10;;;;;;;7.82;100.00;100960.48;106309;1254;72672;-54
2023/11/09 06:36:22;;;;;;;4.40;4.00;;;;;;;7.82;100.00;100966.36;105587;1256;66954;-53
2023/11/09 06:38:50;;;;;;;4.40;3.70;;;;;;;7.82;100.00;100974.23;105041;1256;71906;-51
2023/11/09 06:41:18;;;;;;;6.50;2.70;;;;;;;7.82;100.00;100973.17;105294;1258;61739;-53
2023/11/09 06:43:45;;;;;;;2.60;2.40;;;;;;;7.83;100.00;100979.02;105207;1256;60620;-53
2023/11/09 06:46:13;;;;;;;3.00;2.60;;;;;;;7.84;100.00;100982.77;105263;1260;74021;-52
2023/11/09 06:48:40;;;;;;;4.10;1.80;;;;;;;7.84;100.00;100989.20;105320;1258;66036;-52
2023/11/09 06:51:08;;;;;;;3.60;2.20;;;;;;;7.84;100.00;100992.06;105322;1255;72644;-52
2023/11/09 06:53:35;;;;;;;2.70;1.50;;;;;;;7.83;100.00;100996.35;105201;1254;61956;-50
2023/11/09 06:56:03;;;;;;;3.30;2.00;;;;;;;7.81;100.00;101002.66;104700;1254;61240;-54
2023/11/09 06:58:32;;;;;;;2.30;1.40;;;;;;;7.80;100.00;101000.02;104681;1254;75992;-52
2023/11/09 07:01:00;;;;;;;2.40;1.60;;;;;;;7.79;100.00;101003.95;107844;1255;65528;-51
2023/11/09 07:03:27;;;;;;;4.70;1.50;;;;;;;7.79;100.00;101005.91;104885;1258;73545;-48
2023/11/09 07:05:54;;;;;;;3.30;1.80;;;;;;;7.78;100.00;101001.64;104907;1254;62516;-52
2023/11/09 07:08:28;;;;;;;2.00;1.80;;;;;;;7.78;100.00;100998.96;104798;1257;61167;-55
2023/11/09 07:10:57;;;;;;;3.50;1.60;;;;;;;7.78;100.00;101007.53;104955;1257;74771;-51
2023/11/09 07:13:28;;;;;;;2.60;1.90;;;;;;;7.79;100.00;101011.63;104992;1258;67048;-54
2023/11/09 07:15:55;;;;;;;6.20;2.00;;;;;;;7.79;100.00;101014.86;106136;1255;71218;-53
2023/11/09 07:18:23;;;;;;;3.50;2.60;;;;;;;7.79;100.00;101017.89;108786;1255;62262;-53
2023/11/09 07:20:50;;;;;;;3.60;2.40;;;;;;;7.80;100.00;101022.88;108884;1255;59952;-53
2023/11/09 07:23:33;;;;;;;3.90;2.50;;;;;;;7.81;100.00;101038.59;108883;1254;73506;-53
2023/11/09 07:26:01;;;;;;;5.20;3.30;;;;;;;7.81;100.00;101030.91;108938;1258;67107;-52
2023/11/09 07:28:29;;;;;;;3.90;2.70;;;;;;;7.81;100.00;101030.73;108807;1254;73366;-53
2023/11/09 07:30:56;;;;;;;2.60;2.40;;;;;;;7.80;100.00;101030.73;108832;1255;61071;-52
2023/11/09 07:33:24;;;;;;;4.30;3.00;;;;;;;7.79;100.00;101031.29;108906;1254;58712;-54
2023/11/09 07:35:52;;;;;;;7.20;3.60;;;;;;;7.80;100.00;101038.42;108859;1255;72638;-53
2023/11/09 07:38:19;;;;;;;4.60;2.90;;;;;;;7.83;100.00;101044.42;108855;1255;67053;-53
2023/11/09 07:40:46;;;;;;;3.70;3.20;;;;;;;7.86;100.00;101048.32;108758;1254;72722;-54
2023/11/09 07:43:14;;;;;;;7.10;2.50;;;;;;;7.87;100.00;101050.45;108772;1256;61831;-53
2023/11/09 07:45:41;;;;;;;3.60;2.50;;;;;;;7.87;100.00;101051.17;109012;1255;60095;-54
2023/11/09 07:48:09;;;;;;;5.30;3.50;;;;;;;7.90;100.00;101057.02;108858;1253;73277;-52
2023/11/09 07:50:38;;;;;;;3.20;2.20;;;;;;;7.94;100.00;101059.80;109003;1254;65857;-54
2023/11/09 07:53:06;;;;;;;2.60;2.20;;;;;;;7.98;100.00;101059.73;108730;1257;73151;-56
2023/11/09 07:55:35;;;;;;;3.70;2.60;;;;;;;8.03;100.00;101066.09;108967;1254;61673;-52
2023/11/09 07:58:04;;;;;;;3.00;2.30;;;;;;;8.07;100.00;101075.14;108834;1254;58968;-52
2023/11/09 08:00:32;;;;;;;2.40;1.80;;;;;;;8.12;100.00;101082.20;107143;1256;74302;-55
2023/11/09 08:02:59;;;;;;;2.40;2.20;;;;;;;8.16;100.00;101084.66;105320;1256;66562;-54
2023/11/09 08:05:27;;;;;;;2.60;1.90;;;;;;;8.20;100.00;101087.78;105326;1257;71466;-53
2023/11/09 08:07:54;;;;;;;1.40;1.30;;;;;;;8.25;100.00;101095.92;105298;1259;61753;-51
2023/11/09 08:10:24;;;;;;;3.00;1.30;;;;;;;8.31;100.00;101103.54;105204;1254;60467;-53
2023/11/09 08:12:53;;;;;;;2.00;1.80;;;;;;;8.34;100.00;101111.52;106903;1260;71821;-52
2023/11/09 08:15:22;;;;;;;3.70;1.80;;;;;;;8.35;100.00;101115.63;105109;1256;66889;-54
2023/11/09 08:17:49;;;;;;;2.30;1.60;;;;;;;8.33;100.00;101116.73;105338;1258;71500;-51
2023/11/09 08:20:17;;;;;;;1.80;1.40;;;;;;;8.35;100.00;101120.09;105257;1254;61852;-53
2023/11/09 08:22:45;;;;;;;2.30;1.10;;;;;;;8.37;100.00;101116.66;105976;1256;60650;-51
2023/11/09 08:25:14;;;;;;;2.20;1.40;;;;;;;8.40;100.00;101120.92;105927;1254;73581;-51
2023/11/09 08:27:41;;;;;;;1.30;1.10;;;;;;;8.41;100.00;101127.16;107325;1258;67085;-52
2023/11/09 08:30:10;;;;;;;1.40;1.00;;;;;;;8.42;100.00;101129.99;105020;1258;70753;-52
2023/11/09 08:32:38;;;;;;;4.00;1.60;;;;;;;8.50;100.00;101141.66;108842;1256;60505;-52
2023/11/09 08:35:13;;;;;;;2.00;1.80;;;;;;;8.57;100.00;101151.02;105600;1260;60487;-49
2023/11/09 08:37:41;;;;;;;3.10;1.10;;;;;;;8.65;100.00;101167.17;105547;1260;74413;-53
2023/11/09 08:40:16;;;;;;;1.60;1.20;;;;;;;8.71;100.00;101170.80;109001;1254;68837;-53
2023/11/09 08:42:45;;;;;;;2.90;1.10;;;;;;;8.75;100.00;101182.55;108850;1254;72729;-55
2023/11/09 08:45:13;;;;;;;3.20;1.00;;;;;;;8.79;100.00;101188.20;106992;1256;60665;-55
2023/11/09 08:47:41;;;;;;;3.00;0.90;;;;;;;8.84;100.00;101199.73;105418;1258;60401;-51
2023/11/09 08:50:09;;;;;;;2.30;1.00;;;;;;;8.88;100.00;101203.25;108839;1255;74466;-56
2023/11/09 08:52:40;;;;;;;2.20;0.80;;;;;;;8.90;100.00;101206.61;105475;1256;68252;-52
2023/11/09 08:55:09;;;;;;;2.60;1.10;;;;;;;8.97;100.00;101223.14;106733;1255;70862;-54
2023/11/09 08:57:38;;;;;;;1.20;0.90;;;;;;;9.05;100.00;101229.95;105392;1256;61537;-51
2023/11/09 09:00:11;;;;;;;1.10;0.90;;;;;;;9.13;100.00;101240.38;105340;1258;60361;-52
2023/11/09 09:02:48;;;;;;;1.00;0.80;;;;;;;9.19;100.00;101254.07;105532;1254;72674;-54
2023/11/09 09:05:21;;;;;;;2.10;0.90;;;;;;;9.25;100.00;101274.02;105370;1253;65566;-52
2023/11/09 09:07:50;;;;;;;2.10;1.20;;;;;;;9.30;100.00;101279.11;108253;1254;72880;-51
2023/11/09 09:10:24;;;;;;;;;;;;;;;9.32;100.00;101291.08;105358;1256;60587;-51
2023/11/09 09:12:51;;;;;;;1.40;0.90;;;;;;;9.34;100.00;101292.65;105532;1259;60505;-51
2023/11/09 09:15:20;;;;;;;1.20;0.90;;;;;;;9.33;100.00;101294.98;105499;1258;74082;-51
2023/11/09 09:17:50;;;;;;;1.80;1.10;;;;;;;9.32;100.00;101299.67;105794;1254;67781;-55
2023/11/09 09:20:19;;;;;;;2.80;1.10;;;;;;;9.32;100.00;101307.73;105923;1253;72754;-54
2023/11/09 09:22:49;;;;;;;3.00;1.40;;;;;;;9.30;100.00;101313.67;105285;1258;60495;-51
2023/11/09 09:25:16;;;;;;;3.40;1.70;;;;;;;9.28;100.00;101311.17;107843;1256;60510;-53
2023/11/09 09:27:48;;;;;;;3.20;1.70;;;;;;;9.27;100.00;101312.11;105359;1258;74349;-51
2023/11/09 09:30:21;;;;;;;2.70;1.90;;;;;;;9.26;100.00;101319.68;105197;1253;66779;-52
2023/11/09 09:32:53;;;;;;;5.80;3.60;;;;;;;9.25;100.00;101328.11;105203;1253;72705;-55
2023/11/09 09:35:20;;;;;;;2.60;2.30;;;;;;;9.25;100.00;101330.08;104757;1258;60606;-55
2023/11/09 09:37:50;;;;;;;3.50;3.10;;;;;;;9.27;100.00;101331.65;104875;1253;60579;-52
2023/11/09 09:40:25;;;;;;;4.10;3.20;;;;;;;9.28;100.00;101332.17;104792;1260;72685;-51
2023/11/09 09:43:02;;;;;;;3.70;3.40;;;;;;;9.31;100.00;101356.48;104988;1254;65797;-51
2023/11/09 09:45:30;;;;;;;5.50;3.80;;;;;;;9.34;100.00;101349.09;105277;1253;72653;-52
2023/11/09 09:47:59;;;;;;;4.50;4.10;;;;;;;9.36;100.00;101353.15;108407;1253;61729;-54
2023/11/09 09:50:34;;;;;;;4.90;4.30;;;;;;;9.38;100.00;101357.23;105472;1254;60864;-51
2023/11/09 09:53:02;;;;;;;3.60;3.40;;;;;;;9.39;100.00;101369.41;108245;1253;72686;-51
2023/11/09 09:55:30;;;;;;;3.90;3.70;;;;;;;9.42;100.00;101369.35;105207;1254;65801;-54
2023/11/09 09:57:59;;;;;;;3.80;3.50;;;;;;;9.48;100.00;101377.85;105250;1256;72058;-53
2023/11/09 10:00:26;;;;;;;5.80;4.30;;;;;;;9.54;100.00;101385.27;105405;1258;60473;-50
2023/11/09 10:03:06;;;;;;;5.90;3.50;;;;;;;9.55;100.00;101387.75;105271;1253;60281;-51
2023/11/09 10:05:36;;;;;;;4.10;3.30;;;;;;;9.57;100.00;101407.98;105347;1254;74543;-51
2023/11/09 10:08:10;;;;;;;3.90;3.60;;;;;;;9.58;100.00;101402.41;105467;1258;66937;-52
2023/11/09 10:10:39;;;;;;;3.90;3.60;;;;;;;9.61;100.00;101412.21;108896;1258;73115;-54
2023/11/09 10:13:15;;;;;;;6.00;4.10;;;;;;;9.67;100.00;101412.46;108924;1257;60091;-52
2023/11/09 10:15:46;;;;;;;5.10;3.90;;;;;;;9.75;100.00;101430.77;109054;1253;59119;-53
2023/11/09 10:18:13;;;;;;;4.00;3.40;;;;;;;9.81;100.00;101438.00;109082;1253;73901;-51
2023/11/09 10:20:51;;;;;;;4.30;3.60;;;;;;;9.90;100.00;101442.67;108979;1253;66958;-54
2023/11/09 10:23:19;;;;;;;4.40;2.60;;;;;;;10.00;100.00;101462.41;108926;1258;71145;-52
2023/11/09 10:25:47;;;;;;;3.00;2.10;;;;;;;10.08;100.00;101465.30;108838;1253;61093;-51
2023/11/09 10:28:16;;;;;;;2.40;2.10;;;;;;;10.14;100.00;101484.18;108715;1253;59958;-55
2023/11/09 10:30:44;;;;;;;3.20;2.20;;;;;;;10.17;100.00;101491.69;108885;1253;72345;-52
2023/11/09 10:33:13;;;;;;;1.70;1.60;;;;;;;10.18;100.00;101498.52;109141;1253;65739;-53
2023/11/09 10:35:41;;;;;;;3.70;1.80;;;;;;;10.18;100.00;101503.35;108872;1254;71485;-52
2023/11/09 10:38:12;;;;;;;1.90;1.70;;;;;;;10.17;100.00;101506.04;108920;1254;58886;-53
2023/11/09 10:40:42;;;;;;;3.80;1.60;;;;;;;10.14;100.00;101516.30;108934;1253;60092;-55
2023/11/09 10:43:33;;;;;;;1.90;1.70;;;;;;;10.11;100.00;101534.66;108881;1253;72640;-50
2023/11/09 10:46:04;;;;;;;2.60;2.00;;;;;;;10.07;100.00;101524.86;108943;1253;67498;-56
2023/11/09 10:48:32;;;;;;;2.20;2.00;;;;;;;10.04;100.00;101519.35;108910;1253;71989;-52
2023/11/09 10:51:03;;;;;;;2.00;1.70;;;;;;;10.00;100.00;101518.37;109042;1253;63860;-54
2023/11/09 10:53:32;;;;;;;3.20;2.10;;;;;;;9.96;100.00;101516.26;108964;1253;60247;-52
2023/11/09 10:55:59;;;;;;;2.30;2.10;;;;;;;9.95;100.00;101518.64;108850;1258;73916;-51
2023/11/09 10:58:33;;;;;;;3.70;1.50;;;;;;;9.93;100.00;101522.61;106182;1253;67665;-51
2023/11/09 11:01:02;;;;;;;6.40;1.50;;;;;;;9.90;100.00;101526.59;108857;1255;72806;-53
2023/11/09 11:03:36;;;;;;;2.00;1.40;;;;;;;9.89;100.00;101526.27;108735;1253;62186;-55
2023/11/09 11:06:04;;;;;;;2.30;1.20;;;;;;;9.90;100.00;101543.83;106277;1256;60479;-53
2023/11/09 11:08:38;;;;;;;1.70;1.40;;;;;;;9.87;100.00;101540.63;105285;1255;72647;-52
2023/11/09 11:11:05;;;;;;;2.70;1.40;;;;;;;9.81;100.00;101542.34;106133;1256;65687;-51
2023/11/09 11:13:35;;;;;;;1.60;1.40;;;;;;;9.76;100.00;101537.79;105200;1259;72475;-54
2023/11/09 11:16:16;;;;;;;1.50;1.40;;;;;;;9.69;100.00;101534.67;105292;1256;60472;-55
2023/11/09 11:19:06;;;;;;;3.90;1.70;;;;;;;9.59;100.00;101545.23;106065;1259;60456;-54
2023/11/09 11:22:15;;;;;;;2.10;1.20;;;;;;;9.47;100.00;101543.45;105164;1259;73183;-51
2023/11/09 11:25:06;;;;;;;2.60;1.70;;;;;;;9.39;100.00;101555.20;105345;1261;67546;-54
2023/11/09 11:27:37;;;;;;;2.20;1.20;;;;;;;9.37;100.00;101542.16;105207;1255;72702;-54
2023/11/09 11:30:27;;;;;;;1.60;1.00;;;;;;;9.39;100.00;101519.91;105171;1254;60538;-54
2023/11/09 11:32:59;;;;;;;2.50;1.20;;;;;;;9.44;100.00;101545.29;105249;1253;60547;-53
2023/11/09 11:35:39;;;;;;;5.30;1.30;;;;;;;9.48;100.00;101524.96;104649;1255;73936;-53
2023/11/09 11:38:16;;;;;;;2.60;1.40;;;;;;;9.53;100.00;101537.08;108417;1258;66779;-53